Time;durP1;ratioP1;P1;durP2;ratioP2;P2;SDS_P1;SDS_P2;PMS_P1;PMS_P2;Temp;Humidity;BMP_temperature;BMP_pressure;BME280_temperature;BME280_humidity;BME280_pressure;Samples;Min_cycle;Max_cycle;Signal;HPM_P1;HPM_P2
2023/07/25 00:00:01;;;;;;;12.48;2.58;;;;;;;;;;5049473;28;20036;-63
2023/07/25 00:02:27;;;;;;;10.80;2.72;;;;;;;;;;5050013;28;20020;-63
2023/07/25 00:04:53;;;;;;;9.85;2.40;;;;;;;;;;5053201;28;20047;-64
2023/07/25 00:07:19;;;;;;;7.78;1.95;;;;;;;;;;5051363;28;20063;-63
2023/07/25 00:09:45;;;;;;;6.35;1.90;;;;;;;;;;5052308;28;20032;-63
2023/07/25 00:12:11;;;;;;;6.22;1.92;;;;;;;;;;5051678;28;20040;-63
2023/07/25 00:14:37;;;;;;;9.20;2.38;;;;;;;;;;5053219;28;20032;-63
2023/07/25 00:17:04;;;;;;;8.23;2.78;;;;;;;;;;5053065;28;20029;-63
2023/07/25 00:19:30;;;;;;;9.35;3.15;;;;;;;;;;5052411;28;20074;-63
2023/07/25 00:21:56;;;;;;;8.32;2.30;;;;;;;;;;5051199;28;20036;-63
2023/07/25 00:24:22;;;;;;;8.68;2.22;;;;;;;;;;5051719;28;20553;-63
2023/07/25 00:26:48;;;;;;;6.85;2.33;;;;;;;;;;5051124;28;21793;-63
2023/07/25 00:29:14;;;;;;;8.93;2.25;;;;;;;;;;5051486;28;20502;-63
2023/07/25 00:31:40;;;;;;;7.03;2.05;;;;;;;;;;5051581;28;20475;-63
2023/07/25 00:34:06;;;;;;;10.35;2.33;;;;;;;;;;5051295;28;21204;-63
2023/07/25 00:36:33;;;;;;;9.60;2.85;;;;;;;;;;5050948;28;21223;-63
2023/07/25 00:38:59;;;;;;;8.57;2.63;;;;;;;;;;5050697;28;20048;-63
2023/07/25 00:41:25;;;;;;;7.40;2.28;;;;;;;;;;5050087;28;20052;-64
2023/07/25 00:43:51;;;;;;;8.88;2.85;;;;;;;;;;5050615;28;20028;-63
2023/07/25 00:46:17;;;;;;;7.15;2.03;;;;;;;;;;5051727;28;20024;-63
2023/07/25 00:48:46;;;;;;;8.00;2.67;;;;;;;;;;5050142;28;20036;-63
2023/07/25 00:51:13;;;;;;;12.52;3.03;;;;;;;;;;5050423;28;20041;-63
2023/07/25 00:53:39;;;;;;;8.13;2.65;;;;;;;;;;5051427;28;20028;-63
2023/07/25 00:56:06;;;;;;;6.78;2.50;;;;;;;;;;5050317;28;20357;-64
2023/07/25 00:58:32;;;;;;;9.50;2.65;;;;;;;;;;5050947;28;20039;-63
2023/07/25 01:01:02;;;;;;;8.57;2.55;;;;;;;;;;5033686;28;20033;-63
2023/07/25 01:03:28;;;;;;;10.02;2.20;;;;;;;;;;5049955;28;20024;-64
2023/07/25 01:05:55;;;;;;;6.32;1.70;;;;;;;;;;5048498;28;20107;-63
2023/07/25 01:08:21;;;;;;;11.60;2.30;;;;;;;;;;5051276;28;20029;-63
2023/07/25 01:10:47;;;;;;;8.93;2.17;;;;;;;;;;5051041;28;20036;-64
2023/07/25 01:13:13;;;;;;;9.10;1.95;;;;;;;;;;5051031;28;20058;-63
2023/07/25 01:15:39;;;;;;;9.73;2.90;;;;;;;;;;5051855;28;20502;-63
2023/07/25 01:18:06;;;;;;;9.40;2.50;;;;;;;;;;5048880;28;20040;-63
2023/07/25 01:20:34;;;;;;;7.85;2.13;;;;;;;;;;5049856;28;20060;-63
2023/07/25 01:23:02;;;;;;;7.60;2.38;;;;;;;;;;5050213;28;20025;-63
2023/07/25 01:25:28;;;;;;;9.70;1.80;;;;;;;;;;5050769;28;20561;-63
2023/07/25 01:27:54;;;;;;;6.53;2.10;;;;;;;;;;5049724;28;20044;-63
2023/07/25 01:30:20;;;;;;;13.35;2.70;;;;;;;;;;5050747;28;20040;-63
2023/07/25 01:32:46;;;;;;;10.82;2.58;;;;;;;;;;5050273;28;20051;-63
2023/07/25 01:35:12;;;;;;;12.20;2.92;;;;;;;;;;5050392;28;20416;-63
2023/07/25 01:37:38;;;;;;;9.20;2.42;;;;;;;;;;5050665;28;20028;-63
2023/07/25 01:40:04;;;;;;;11.23;2.22;;;;;;;;;;5050227;28;20016;-63
2023/07/25 01:42:31;;;;;;;10.80;2.58;;;;;;;;;;5050272;28;20484;-62
2023/07/25 01:44:57;;;;;;;8.40;2.17;;;;;;;;;;5050883;28;20066;-63
2023/07/25 01:47:25;;;;;;;10.23;2.30;;;;;;;;;;5049941;28;20028;-63
2023/07/25 01:49:52;;;;;;;8.25;2.30;;;;;;;;;;5049995;28;20971;-64
2023/07/25 01:52:19;;;;;;;6.43;2.05;;;;;;;;;;5047585;28;20082;-63
2023/07/25 01:54:45;;;;;;;9.27;2.30;;;;;;;;;;5050330;28;20485;-63
2023/07/25 01:57:11;;;;;;;6.45;1.92;;;;;;;;;;5049187;28;20016;-63
2023/07/25 01:59:37;;;;;;;12.50;2.60;;;;;;;;;;5049360;28;20025;-63
2023/07/25 02:02:03;;;;;;;11.57;2.53;;;;;;;;;;5050860;28;20043;-63
2023/07/25 02:04:29;;;;;;;8.48;2.70;;;;;;;;;;5050063;28;20125;-64
2023/07/25 02:06:55;;;;;;;9.93;2.17;;;;;;;;;;5050567;28;20039;-64
2023/07/25 02:09:21;;;;;;;10.05;2.50;;;;;;;;;;5049816;28;20073;-63
2023/07/25 02:11:47;;;;;;;10.25;2.67;;;;;;;;;;5050494;28;20092;-63
2023/07/25 02:14:13;;;;;;;10.25;2.72;;;;;;;;;;5049292;28;20047;-64
2023/07/25 02:16:40;;;;;;;8.10;1.85;;;;;;;;;;5050177;28;20125;-63
2023/07/25 02:19:06;;;;;;;9.40;2.00;;;;;;;;;;5050477;28;20024;-63
2023/07/25 02:21:33;;;;;;;11.77;2.25;;;;;;;;;;5049094;28;21503;-62
2023/07/25 02:23:59;;;;;;;8.02;2.20;;;;;;;;;;5050083;28;20028;-63
2023/07/25 02:26:25;;;;;;;5.03;2.15;;;;;;;;;;5049433;28;20571;-64
2023/07/25 02:28:51;;;;;;;6.75;2.20;;;;;;;;;;5048731;28;20028;-63
2023/07/25 02:31:18;;;;;;;9.75;2.50;;;;;;;;;;5050218;28;20036;-63
2023/07/25 02:33:44;;;;;;;8.98;2.33;;;;;;;;;;5050890;28;20043;-63
2023/07/25 02:36:10;;;;;;;7.40;2.42;;;;;;;;;;5050276;28;20040;-63
2023/07/25 02:38:36;;;;;;;10.82;2.95;;;;;;;;;;5048878;28;20040;-63
2023/07/25 02:41:03;;;;;;;6.07;1.77;;;;;;;;;;5049576;28;20736;-63
2023/07/25 02:43:29;;;;;;;7.75;2.13;;;;;;;;;;5049632;28;20039;-63
2023/07/25 02:45:55;;;;;;;7.40;1.65;;;;;;;;;;5049937;28;20028;-63
2023/07/25 02:48:21;;;;;;;9.85;2.58;;;;;;;;;;5050218;28;20033;-63
2023/07/25 02:50:47;;;;;;;8.80;2.15;;;;;;;;;;5049273;28;20505;-63
2023/07/25 02:53:13;;;;;;;7.28;2.40;;;;;;;;;;5049065;28;20044;-63
2023/07/25 02:55:39;;;;;;;8.65;2.58;;;;;;;;;;5048400;28;20033;-63
2023/07/25 02:58:05;;;;;;;6.75;2.50;;;;;;;;;;5049641;28;20139;-63
2023/07/25 03:00:31;;;;;;;7.13;2.13;;;;;;;;;;5050539;28;20028;-63
2023/07/25 03:02:57;;;;;;;11.38;2.20;;;;;;;;;;5049758;28;20532;-62
2023/07/25 03:05:27;;;;;;;7.72;2.10;;;;;;;;;;5049671;28;20028;-63
2023/07/25 03:07:53;;;;;;;6.25;2.00;;;;;;;;;;5048338;28;20027;-63
2023/07/25 03:10:19;;;;;;;7.95;2.03;;;;;;;;;;5049566;28;20032;-63
2023/07/25 03:12:45;;;;;;;11.52;2.70;;;;;;;;;;5048159;28;20038;-63
2023/07/25 03:15:11;;;;;;;11.40;2.72;;;;;;;;;;5049482;28;20062;-63
2023/07/25 03:17:37;;;;;;;9.60;2.58;;;;;;;;;;5049147;28;20044;-63
2023/07/25 03:20:03;;;;;;;10.50;2.53;;;;;;;;;;5050271;28;20035;-63
2023/07/25 03:22:29;;;;;;;7.20;2.25;;;;;;;;;;5048683;28;20550;-63
2023/07/25 03:24:55;;;;;;;8.00;2.17;;;;;;;;;;5049780;28;20035;-63
2023/07/25 03:27:21;;;;;;;8.45;2.20;;;;;;;;;;5049356;28;20040;-63
2023/07/25 03:29:47;;;;;;;8.85;2.05;;;;;;;;;;5048372;28;21761;-63
2023/07/25 03:32:13;;;;;;;7.82;2.30;;;;;;;;;;5049685;28;20147;-64
2023/07/25 03:34:39;;;;;;;6.95;2.47;;;;;;;;;;5048628;28;20094;-63
2023/07/25 03:37:05;;;;;;;10.70;2.95;;;;;;;;;;5049356;28;20028;-63
2023/07/25 03:39:32;;;;;;;10.13;1.95;;;;;;;;;;5049041;28;20036;-63
2023/07/25 03:41:58;;;;;;;10.15;2.53;;;;;;;;;;5049711;28;20064;-63
2023/07/25 03:44:24;;;;;;;11.40;3.17;;;;;;;;;;5048342;28;20032;-63
2023/07/25 03:46:50;;;;;;;8.15;2.17;;;;;;;;;;5048131;28;20024;-63
2023/07/25 03:49:16;;;;;;;10.18;2.55;;;;;;;;;;5049162;28;20028;-63
2023/07/25 03:51:42;;;;;;;10.63;2.58;;;;;;;;;;5049057;28;20050;-62
2023/07/25 03:54:08;;;;;;;9.02;2.42;;;;;;;;;;5046448;28;20040;-63
2023/07/25 03:56:34;;;;;;;9.68;2.58;;;;;;;;;;5046313;28;20621;-63
2023/07/25 03:59:01;;;;;;;7.88;2.38;;;;;;;;;;5045610;28;20028;-63
2023/07/25 04:01:27;;;;;;;7.50;2.00;;;;;;;;;;5047431;28;20711;-63
2023/07/25 04:03:53;;;;;;;9.20;2.17;;;;;;;;;;5047423;28;20124;-63
2023/07/25 04:06:19;;;;;;;7.07;2.45;;;;;;;;;;5048699;28;20021;-63
2023/07/25 04:08:46;;;;;;;10.20;1.98;;;;;;;;;;5049482;28;20032;-63
2023/07/25 04:11:13;;;;;;;7.78;2.08;;;;;;;;;;5033699;28;21666;-63
2023/07/25 04:13:39;;;;;;;9.75;2.10;;;;;;;;;;5048752;28;20416;-62
2023/07/25 04:16:05;;;;;;;7.75;2.40;;;;;;;;;;5048464;28;20653;-62
2023/07/25 04:18:31;;;;;;;12.18;2.20;;;;;;;;;;5048435;28;20106;-62
2023/07/25 04:20:57;;;;;;;10.25;2.75;;;;;;;;;;5048595;28;21350;-63
2023/07/25 04:23:25;;;;;;;9.20;2.10;;;;;;;;;;5048337;28;20481;-62
2023/07/25 04:25:52;;;;;;;7.65;2.20;;;;;;;;;;5049389;28;20501;-62
2023/07/25 04:28:18;;;;;;;7.10;2.13;;;;;;;;;;5047533;28;20052;-62
2023/07/25 04:30:44;;;;;;;7.43;2.10;;;;;;;;;;5049993;28;20059;-62
2023/07/25 04:33:10;;;;;;;7.10;1.92;;;;;;;;;;5049092;28;20051;-64
2023/07/25 04:35:36;;;;;;;7.28;2.03;;;;;;;;;;5048490;28;21898;-63
2023/07/25 04:38:02;;;;;;;5.10;1.92;;;;;;;;;;5048371;28;20033;-63
2023/07/25 04:40:29;;;;;;;6.28;2.10;;;;;;;;;;5048987;28;20036;-63
2023/07/25 04:42:55;;;;;;;7.65;1.98;;;;;;;;;;5049031;28;20040;-62
2023/07/25 04:45:21;;;;;;;9.20;1.80;;;;;;;;;;5034246;28;20207;-62
2023/07/25 04:47:47;;;;;;;5.32;1.67;;;;;;;;;;5048878;28;20484;-63
2023/07/25 04:50:13;;;;;;;6.22;1.70;;;;;;;;;;5050878;28;20475;-63
2023/07/25 04:52:39;;;;;;;7.45;1.83;;;;;;;;;;5052050;28;20028;-62
2023/07/25 04:55:06;;;;;;;9.25;2.40;;;;;;;;;;5051677;28;20756;-62
2023/07/25 04:57:33;;;;;;;9.35;2.75;;;;;;;;;;5051973;28;20499;-63
2023/07/25 04:59:59;;;;;;;9.82;1.73;;;;;;;;;;5051667;28;21752;-63
2023/07/25 05:02:25;;;;;;;6.80;1.67;;;;;;;;;;5051442;28;20047;-63
2023/07/25 05:04:51;;;;;;;7.53;2.20;;;;;;;;;;5051510;28;20032;-63
2023/07/25 05:07:17;;;;;;;7.68;2.03;;;;;;;;;;5050503;28;20008;-62
2023/07/25 05:09:43;;;;;;;6.20;1.67;;;;;;;;;;5033200;28;20038;-62
2023/07/25 05:12:11;;;;;;;7.05;1.80;;;;;;;;;;5051572;28;20047;-62
2023/07/25 05:14:38;;;;;;;10.93;1.73;;;;;;;;;;5051483;28;20094;-64
2023/07/25 05:17:04;;;;;;;11.13;2.95;;;;;;;;;;5052683;28;20037;-63
2023/07/25 05:19:30;;;;;;;9.40;2.38;;;;;;;;;;5051710;28;20095;-63
2023/07/25 05:21:56;;;;;;;8.55;1.77;;;;;;;;;;5051702;28;20602;-62
2023/07/25 05:24:23;;;;;;;14.30;2.67;;;;;;;;;;5051608;28;20127;-62
2023/07/25 05:26:49;;;;;;;7.55;1.73;;;;;;;;;;5032890;28;20029;-63
2023/07/25 05:29:15;;;;;;;11.68;2.20;;;;;;;;;;5052519;28;20145;-63
2023/07/25 05:31:42;;;;;;;8.68;1.80;;;;;;;;;;5051641;28;20068;-63
2023/07/25 05:34:08;;;;;;;10.20;1.98;;;;;;;;;;5051641;28;20032;-63
2023/07/25 05:36:34;;;;;;;14.27;1.85;;;;;;;;;;5051244;28;20036;-63
2023/07/25 05:39:00;;;;;;;7.13;1.92;;;;;;;;;;5051327;28;20162;-63
2023/07/25 05:41:26;;;;;;;11.45;2.40;;;;;;;;;;5052101;28;20044;-63
2023/07/25 05:43:52;;;;;;;8.48;1.55;;;;;;;;;;5050852;28;20048;-63
2023/07/25 05:46:18;;;;;;;7.85;2.90;;;;;;;;;;5052517;28;21112;-63
2023/07/25 05:48:44;;;;;;;6.07;1.83;;;;;;;;;;5050753;28;20759;-63
2023/07/25 05:51:11;;;;;;;6.38;1.98;;;;;;;;;;5051221;28;21059;-63
2023/07/25 05:53:37;;;;;;;9.93;1.92;;;;;;;;;;5050316;28;20032;-63
2023/07/25 05:56:03;;;;;;;12.30;1.67;;;;;;;;;;5050833;28;20033;-62
2023/07/25 05:58:29;;;;;;;10.52;1.98;;;;;;;;;;5049989;28;20500;-62
2023/07/25 06:00:55;;;;;;;5.47;1.48;;;;;;;;;;5050604;28;20413;-63
2023/07/25 06:03:21;;;;;;;11.43;2.38;;;;;;;;;;5049472;28;20077;-63
2023/07/25 06:05:48;;;;;;;8.25;1.60;;;;;;;;;;5048644;28;20047;-62
2023/07/25 06:08:14;;;;;;;7.35;1.50;;;;;;;;;;5049116;28;20023;-62
2023/07/25 06:10:40;;;;;;;11.65;1.42;;;;;;;;;;5051253;28;20016;-62
2023/07/25 06:13:06;;;;;;;6.93;1.35;;;;;;;;;;5050296;28;20028;-63
2023/07/25 06:15:34;;;;;;;7.13;1.52;;;;;;;;;;5050710;28;20151;-63
2023/07/25 06:18:01;;;;;;;6.82;1.50;;;;;;;;;;5050540;28;20100;-63
2023/07/25 06:20:27;;;;;;;7.53;1.45;;;;;;;;;;5049758;28;20433;-62
2023/07/25 06:22:53;;;;;;;8.20;1.60;;;;;;;;;;5034793;28;20052;-62
2023/07/25 06:25:19;;;;;;;8.95;1.60;;;;;;;;;;5048694;28;20115;-63
2023/07/25 06:27:46;;;;;;;7.32;1.48;;;;;;;;;;5049942;28;20044;-63
2023/07/25 06:30:12;;;;;;;5.45;1.85;;;;;;;;;;5049599;28;20032;-63
2023/07/25 06:32:38;;;;;;;8.13;1.10;;;;;;;;;;5050168;28;20482;-63
2023/07/25 06:35:04;;;;;;;8.75;1.15;;;;;;;;;;5048461;28;20044;-64
2023/07/25 06:37:34;;;;;;;7.45;1.30;;;;;;;;;;5048645;28;21836;-63
2023/07/25 06:40:00;;;;;;;7.18;1.40;;;;;;;;;;5047945;28;20024;-64
2023/07/25 06:42:29;;;;;;;7.40;1.60;;;;;;;;;;5046774;28;20175;-63
2023/07/25 06:44:56;;;;;;;6.75;1.33;;;;;;;;;;5044562;28;20033;-64
2023/07/25 06:47:22;;;;;;;4.90;1.27;;;;;;;;;;5044328;28;20024;-63
2023/07/25 06:49:48;;;;;;;8.75;1.83;;;;;;;;;;5046595;28;20119;-63
2023/07/25 06:52:14;;;;;;;4.32;1.42;;;;;;;;;;5047148;28;20032;-63
2023/07/25 06:54:41;;;;;;;4.75;1.48;;;;;;;;;;5047680;28;20843;-63
2023/07/25 06:57:07;;;;;;;7.13;1.27;;;;;;;;;;5029843;28;20044;-63
2023/07/25 06:59:34;;;;;;;6.82;1.08;;;;;;;;;;5047133;28;20032;-63
2023/07/25 07:02:00;;;;;;;6.45;0.95;;;;;;;;;;5044530;28;20036;-63
2023/07/25 07:04:26;;;;;;;4.13;0.80;;;;;;;;;;5027630;28;20067;-63
2023/07/25 07:06:52;;;;;;;4.95;1.02;;;;;;;;;;5045564;28;20834;-64
2023/07/25 07:09:18;;;;;;;4.40;1.00;;;;;;;;;;5046750;28;20050;-64
2023/07/25 07:11:44;;;;;;;6.03;0.90;;;;;;;;;;5047147;28;20020;-63
2023/07/25 07:14:10;;;;;;;3.95;1.25;;;;;;;;;;5029242;28;20048;-64
2023/07/25 07:16:36;;;;;;;5.45;1.00;;;;;;;;;;5048391;28;20778;-64
2023/07/25 07:19:02;;;;;;;4.53;1.05;;;;;;;;;;5047787;28;20067;-64
2023/07/25 07:21:29;;;;;;;5.53;1.17;;;;;;;;;;5048111;28;20032;-64
2023/07/25 07:23:55;;;;;;;4.25;0.75;;;;;;;;;;5047356;28;20230;-64
2023/07/25 07:26:22;;;;;;;4.78;1.00;;;;;;;;;;5047342;28;20233;-64
2023/07/25 07:28:48;;;;;;;5.95;0.70;;;;;;;;;;5046963;28;20459;-63
2023/07/25 07:31:15;;;;;;;3.80;0.88;;;;;;;;;;5048317;28;20983;-63
2023/07/25 07:33:41;;;;;;;4.72;0.90;;;;;;;;;;5048258;28;20077;-64
2023/07/25 07:36:07;;;;;;;5.47;1.00;;;;;;;;;;5048331;28;20047;-64
2023/07/25 07:38:33;;;;;;;3.95;0.90;;;;;;;;;;5048176;28;20043;-63
2023/07/25 07:40:59;;;;;;;9.30;1.38;;;;;;;;;;5047520;28;20526;-64
2023/07/25 07:43:25;;;;;;;8.70;1.55;;;;;;;;;;5046318;28;20159;-64
2023/07/25 07:45:51;;;;;;;5.13;0.68;;;;;;;;;;5046876;28;20017;-64
2023/07/25 07:48:17;;;;;;;5.97;0.80;;;;;;;;;;5047756;28;20055;-64
2023/07/25 07:50:43;;;;;;;6.38;1.25;;;;;;;;;;5047746;28;20032;-63
2023/07/25 07:53:10;;;;;;;4.28;0.77;;;;;;;;;;5047783;28;20037;-60
2023/07/25 07:55:36;;;;;;;6.47;0.80;;;;;;;;;;5032423;28;20698;-60
2023/07/25 07:58:02;;;;;;;4.78;1.48;;;;;;;;;;5046471;28;20035;-60
2023/07/25 08:00:28;;;;;;;5.65;1.00;;;;;;;;;;5044931;28;20574;-60
2023/07/25 08:02:55;;;;;;;4.07;1.30;;;;;;;;;;5043907;28;22196;-60
2023/07/25 08:05:21;;;;;;;3.90;0.80;;;;;;;;;;5039745;28;20029;-60
2023/07/25 08:07:47;;;;;;;5.03;0.95;;;;;;;;;;5038672;28;20432;-60
2023/07/25 08:10:14;;;;;;;4.47;0.98;;;;;;;;;;5039012;28;20722;-60
2023/07/25 08:12:40;;;;;;;8.98;1.20;;;;;;;;;;5039077;28;20044;-60
2023/07/25 08:15:06;;;;;;;4.20;0.60;;;;;;;;;;5026300;28;20056;-61
2023/07/25 08:17:32;;;;;;;6.05;1.48;;;;;;;;;;5041592;28;20024;-60
2023/07/25 08:19:59;;;;;;;4.82;1.33;;;;;;;;;;5039266;28;20032;-60
2023/07/25 08:22:26;;;;;;;3.22;0.82;;;;;;;;;;5037142;28;20122;-60
2023/07/25 08:24:55;;;;;;;4.63;0.95;;;;;;;;;;5042613;28;20028;-60
2023/07/25 08:27:21;;;;;;;7.15;1.00;;;;;;;;;;5040766;28;20135;-60
2023/07/25 08:29:48;;;;;;;4.82;1.10;;;;;;;;;;5042853;28;20036;-60
2023/07/25 08:32:14;;;;;;;5.78;1.25;;;;;;;;;;5041728;28;20058;-60
2023/07/25 08:34:41;;;;;;;6.90;1.08;;;;;;;;;;5043598;28;20495;-60
2023/07/25 08:37:07;;;;;;;5.65;1.00;;;;;;;;;;5041812;28;20024;-60
2023/07/25 08:39:34;;;;;;;4.85;0.93;;;;;;;;;;5042921;28;20049;-60
2023/07/25 08:42:04;;;;;;;4.82;0.98;;;;;;;;;;5039302;28;20495;-60
2023/07/25 08:44:32;;;;;;;7.65;1.00;;;;;;;;;;5041720;28;20131;-60
2023/07/25 08:47:02;;;;;;;8.70;1.25;;;;;;;;;;5040080;28;20144;-60
2023/07/25 08:49:31;;;;;;;4.63;0.90;;;;;;;;;;5043273;28;20128;-60
2023/07/25 08:51:59;;;;;;;7.60;1.40;;;;;;;;;;5043406;28;20052;-60
2023/07/25 08:54:30;;;;;;;6.13;1.15;;;;;;;;;;5043491;28;20709;-60
2023/07/25 08:56:56;;;;;;;4.50;0.80;;;;;;;;;;5044217;28;20067;-60
2023/07/25 08:59:23;;;;;;;3.80;1.02;;;;;;;;;;5043752;28;20471;-60
2023/07/25 09:01:49;;;;;;;3.97;0.90;;;;;;;;;;5042789;28;20043;-60
2023/07/25 09:04:15;;;;;;;3.75;0.85;;;;;;;;;;5025801;28;20098;-61
2023/07/25 09:06:42;;;;;;;4.50;1.38;;;;;;;;;;5043667;28;20099;-60
2023/07/25 09:09:08;;;;;;;4.22;1.27;;;;;;;;;;5043663;28;20024;-60
2023/07/25 09:11:34;;;;;;;4.50;0.80;;;;;;;;;;5028355;28;20129;-60
2023/07/25 09:14:03;;;;;;;2.85;1.00;;;;;;;;;;5044795;28;20044;-60
2023/07/25 09:16:33;;;;;;;3.60;0.80;;;;;;;;;;5045009;28;20520;-64
2023/07/25 09:18:59;;;;;;;4.20;0.77;;;;;;;;;;5026094;28;20029;-64
2023/07/25 09:21:25;;;;;;;4.72;0.90;;;;;;;;;;5043640;28;20055;-64
2023/07/25 09:23:56;;;;;;;5.47;1.05;;;;;;;;;;5044736;28;20164;-64
2023/07/25 09:26:23;;;;;;;6.93;1.35;;;;;;;;;;5043824;28;20487;-64
2023/07/25 09:28:50;;;;;;;4.20;1.17;;;;;;;;;;5044376;28;20036;-64
2023/07/25 09:31:16;;;;;;;6.10;1.02;;;;;;;;;;5046586;28;20679;-64
2023/07/25 09:33:46;;;;;;;3.15;0.75;;;;;;;;;;5049763;28;20111;-64
2023/07/25 09:36:12;;;;;;;4.53;1.00;;;;;;;;;;5048966;28;20061;-64
2023/07/25 09:38:47;;;;;;;5.85;1.00;;;;;;;;;;5050744;28;21693;-64
2023/07/25 09:41:13;;;;;;;6.80;1.42;;;;;;;;;;5050350;28;21858;-64
2023/07/25 09:43:39;;;;;;;5.30;1.10;;;;;;;;;;5050113;28;20554;-64
2023/07/25 09:46:05;;;;;;;6.03;1.42;;;;;;;;;;5050754;28;20039;-64
2023/07/25 09:48:32;;;;;;;5.18;0.93;;;;;;;;;;5050135;28;20036;-60
2023/07/25 09:50:58;;;;;;;5.18;1.25;;;;;;;;;;5048839;28;20075;-60
2023/07/25 09:53:27;;;;;;;6.28;1.10;;;;;;;;;;5044950;28;20040;-60
2023/07/25 09:55:54;;;;;;;5.68;1.02;;;;;;;;;;5048610;28;20533;-60
2023/07/25 09:58:20;;;;;;;7.00;1.15;;;;;;;;;;5049265;28;20071;-60
2023/07/25 10:00:46;;;;;;;8.30;1.30;;;;;;;;;;5048207;28;20064;-60
2023/07/25 10:03:16;;;;;;;5.75;1.08;;;;;;;;;;5043735;28;22043;-60
2023/07/25 10:05:43;;;;;;;4.38;0.98;;;;;;;;;;5037376;28;20093;-61
2023/07/25 10:08:10;;;;;;;8.45;1.00;;;;;;;;;;5040910;28;20040;-60
2023/07/25 10:10:37;;;;;;;4.60;0.82;;;;;;;;;;5022179;28;20068;-60
2023/07/25 10:13:03;;;;;;;4.45;0.82;;;;;;;;;;5041257;28;20052;-60
2023/07/25 10:15:30;;;;;;;8.15;1.20;;;;;;;;;;5042115;28;20043;-60
2023/07/25 10:18:03;;;;;;;4.78;1.10;;;;;;;;;;5042020;28;20044;-60
2023/07/25 10:20:29;;;;;;;4.15;1.00;;;;;;;;;;5041937;28;20971;-60
2023/07/25 10:23:06;;;;;;;5.63;1.50;;;;;;;;;;5042012;28;20537;-60
2023/07/25 10:25:32;;;;;;;5.05;1.08;;;;;;;;;;5042107;28;20060;-60
2023/07/25 10:28:02;;;;;;;3.22;0.80;;;;;;;;;;5042785;28;20020;-60
2023/07/25 10:30:33;;;;;;;5.63;1.00;;;;;;;;;;5043721;28;20029;-60
2023/07/25 10:33:03;;;;;;;5.05;1.17;;;;;;;;;;5041323;28;21662;-61
2023/07/25 10:35:49;;;;;;;15.68;2.42;;;;;;;;;;5042726;28;20505;-60
2023/07/25 10:38:20;;;;;;;2.00;0.52;;;;;;;;;;5041588;28;20041;-60
2023/07/25 10:40:52;;;;;;;6.65;1.17;;;;;;;;;;5043201;28;20131;-60
2023/07/25 10:43:19;;;;;;;5.65;1.10;;;;;;;;;;5041778;28;20147;-60
2023/07/25 10:45:45;;;;;;;7.10;1.13;;;;;;;;;;5044013;28;20119;-60
2023/07/25 10:48:26;;;;;;;5.82;1.05;;;;;;;;;;5047194;28;20166;-60
2023/07/25 10:50:55;;;;;;;5.28;1.10;;;;;;;;;;5047320;28;20118;-60
2023/07/25 10:53:24;;;;;;;3.67;0.80;;;;;;;;;;5048960;28;20041;-60
2023/07/25 10:56:10;;;;;;;6.10;1.52;;;;;;;;;;5048608;28;20028;-60
2023/07/25 10:58:38;;;;;;;6.15;1.17;;;;;;;;;;5048102;28;20928;-60
2023/07/25 11:01:04;;;;;;;4.03;0.98;;;;;;;;;;5047905;28;20050;-60
2023/07/25 11:03:31;;;;;;;8.07;1.17;;;;;;;;;;5046506;28;20028;-60
2023/07/25 11:06:09;;;;;;;4.57;0.80;;;;;;;;;;5048761;28;20023;-60
2023/07/25 11:08:36;;;;;;;5.88;0.88;;;;;;;;;;5048346;28;20028;-60
2023/07/25 11:11:03;;;;;;;3.95;1.00;;;;;;;;;;5030919;28;20109;-60
2023/07/25 11:13:29;;;;;;;3.55;1.00;;;;;;;;;;5048413;28;20115;-60
2023/07/25 11:15:56;;;;;;;4.57;0.85;;;;;;;;;;5048100;28;20036;-60
2023/07/25 11:18:22;;;;;;;5.50;1.17;;;;;;;;;;5047452;28;20086;-60
2023/07/25 11:21:01;;;;;;;4.30;0.95;;;;;;;;;;5048796;28;20430;-60
2023/07/25 11:23:27;;;;;;;4.82;0.80;;;;;;;;;;5047770;28;20159;-60
2023/07/25 11:26:00;;;;;;;6.28;1.10;;;;;;;;;;5048664;28;20135;-60
2023/07/25 11:28:27;;;;;;;7.88;0.98;;;;;;;;;;5047716;28;20020;-60
2023/07/25 11:30:53;;;;;;;3.95;0.70;;;;;;;;;;5049174;28;20029;-60
2023/07/25 11:33:19;;;;;;;4.00;0.75;;;;;;;;;;5046920;28;20027;-60
2023/07/25 11:35:51;;;;;;;4.60;0.98;;;;;;;;;;5047464;28;20036;-60
2023/07/25 11:38:17;;;;;;;6.30;1.48;;;;;;;;;;5047440;28;20024;-61
2023/07/25 11:40:49;;;;;;;4.10;0.68;;;;;;;;;;5048006;28;20040;-60
2023/07/25 11:43:15;;;;;;;1.98;0.75;;;;;;;;;;5048519;28;21117;-60
2023/07/25 11:45:42;;;;;;;3.53;0.60;;;;;;;;;;5047063;28;20476;-60
2023/07/25 11:48:08;;;;;;;3.47;0.73;;;;;;;;;;5047810;28;20775;-60
2023/07/25 11:50:38;;;;;;;3.45;0.68;;;;;;;;;;5047311;28;20055;-60
2023/07/25 11:53:04;;;;;;;4.45;1.05;;;;;;;;;;5047651;28;20035;-60
2023/07/25 11:55:33;;;;;;;4.95;1.35;;;;;;;;;;5047210;28;20043;-60
2023/07/25 11:58:01;;;;;;;2.95;0.77;;;;;;;;;;5049802;28;20043;-60
2023/07/25 12:00:38;;;;;;;4.55;1.10;;;;;;;;;;5050289;28;20620;-60
2023/07/25 12:03:04;;;;;;;6.50;1.10;;;;;;;;;;5051157;28;20024;-60
2023/07/25 12:05:31;;;;;;;3.50;0.80;;;;;;;;;;5051928;28;20029;-60
2023/07/25 12:08:02;;;;;;;6.45;1.35;;;;;;;;;;5050865;28;20033;-60
2023/07/25 12:10:29;;;;;;;4.55;0.90;;;;;;;;;;5048750;28;20540;-61
2023/07/25 12:12:55;;;;;;;5.47;1.00;;;;;;;;;;5049319;28;20043;-60
2023/07/25 12:15:42;;;;;;;2.22;0.65;;;;;;;;;;5050062;28;21088;-60
2023/07/25 12:18:34;;;;;;;5.40;1.38;;;;;;;;;;5049752;28;20125;-60
2023/07/25 12:21:01;;;;;;;3.88;0.73;;;;;;;;;;5044771;28;20048;-60
2023/07/25 12:23:28;;;;;;;4.85;0.95;;;;;;;;;;5051184;28;20503;-60
2023/07/25 12:25:55;;;;;;;4.07;0.90;;;;;;;;;;5051341;28;20064;-61
2023/07/25 12:28:21;;;;;;;3.70;0.80;;;;;;;;;;5051800;28;20938;-60
2023/07/25 12:30:47;;;;;;;5.97;1.13;;;;;;;;;;5051738;28;20055;-60
2023/07/25 12:33:13;;;;;;;3.42;0.90;;;;;;;;;;5050729;28;20035;-60
2023/07/25 12:35:39;;;;;;;4.38;0.70;;;;;;;;;;5050821;28;20041;-60
2023/07/25 12:38:09;;;;;;;3.88;1.08;;;;;;;;;;5051094;28;20040;-60
2023/07/25 12:40:35;;;;;;;5.15;1.02;;;;;;;;;;5049987;28;20154;-60
2023/07/25 12:43:01;;;;;;;6.10;1.10;;;;;;;;;;5051940;28;20105;-60
2023/07/25 12:45:27;;;;;;;4.22;0.80;;;;;;;;;;5050060;28;20028;-60
2023/07/25 12:47:53;;;;;;;5.28;1.02;;;;;;;;;;5050595;28;20043;-60
2023/07/25 12:50:19;;;;;;;6.80;1.15;;;;;;;;;;5049761;28;20037;-60
2023/07/25 12:52:45;;;;;;;2.58;0.90;;;;;;;;;;5050922;28;20554;-60
2023/07/25 12:55:11;;;;;;;7.85;1.33;;;;;;;;;;5050770;28;20040;-60
2023/07/25 12:57:37;;;;;;;5.55;0.80;;;;;;;;;;5048904;28;20029;-60
2023/07/25 13:00:04;;;;;;;6.03;1.23;;;;;;;;;;5051196;28;20097;-60
2023/07/25 13:02:32;;;;;;;4.18;1.15;;;;;;;;;;5051145;28;20032;-60
2023/07/25 13:04:58;;;;;;;7.55;1.20;;;;;;;;;;5051896;28;20753;-60
2023/07/25 13:07:24;;;;;;;3.13;1.02;;;;;;;;;;5032576;28;20024;-60
2023/07/25 13:09:55;;;;;;;3.70;0.80;;;;;;;;;;5049842;28;20032;-60
2023/07/25 13:12:24;;;;;;;2.63;0.77;;;;;;;;;;5050398;28;20613;-60
2023/07/25 13:14:51;;;;;;;4.35;1.10;;;;;;;;;;5051735;28;20028;-60
2023/07/25 13:17:17;;;;;;;5.68;0.80;;;;;;;;;;5050625;28;20076;-60
2023/07/25 13:19:43;;;;;;;4.07;0.85;;;;;;;;;;5049635;28;20054;-60
2023/07/25 13:22:09;;;;;;;4.57;0.70;;;;;;;;;;5049745;28;20248;-60
2023/07/25 13:24:35;;;;;;;4.25;0.65;;;;;;;;;;5050076;28;20044;-60
2023/07/25 13:27:01;;;;;;;3.63;0.70;;;;;;;;;;5050605;28;20101;-60
2023/07/25 13:29:27;;;;;;;5.60;1.13;;;;;;;;;;5050338;28;20029;-60
2023/07/25 13:31:54;;;;;;;2.78;0.90;;;;;;;;;;5050556;28;20032;-60
2023/07/25 13:34:20;;;;;;;1.58;0.65;;;;;;;;;;5050156;28;20047;-60
2023/07/25 13:36:46;;;;;;;5.50;0.98;;;;;;;;;;5050777;28;20028;-60
2023/07/25 13:39:12;;;;;;;2.58;0.82;;;;;;;;;;5049591;28;20048;-60
2023/07/25 13:41:38;;;;;;;2.72;0.73;;;;;;;;;;5050962;28;20438;-60
2023/07/25 13:44:04;;;;;;;3.30;0.70;;;;;;;;;;5050898;28;20559;-60
2023/07/25 13:46:30;;;;;;;3.90;0.90;;;;;;;;;;5047962;28;20032;-60
2023/07/25 13:48:56;;;;;;;2.13;0.70;;;;;;;;;;5050217;28;20123;-60
2023/07/25 13:51:23;;;;;;;4.45;1.00;;;;;;;;;;5050290;28;20041;-60
2023/07/25 13:53:49;;;;;;;3.28;0.82;;;;;;;;;;5049361;28;20043;-60
2023/07/25 13:56:15;;;;;;;3.45;0.93;;;;;;;;;;5050790;28;20107;-60
2023/07/25 13:58:42;;;;;;;4.90;1.10;;;;;;;;;;5050123;28;20045;-60
2023/07/25 14:01:08;;;;;;;2.47;0.70;;;;;;;;;;5050414;28;21048;-60
2023/07/25 14:03:34;;;;;;;3.03;0.90;;;;;;;;;;5049892;28;20086;-60
2023/07/25 14:06:00;;;;;;;3.97;1.10;;;;;;;;;;5048714;28;20055;-60
2023/07/25 14:08:26;;;;;;;3.28;0.95;;;;;;;;;;5049210;28;20020;-60
2023/07/25 14:10:52;;;;;;;2.45;1.00;;;;;;;;;;5048583;28;20032;-60
2023/07/25 14:13:18;;;;;;;2.92;0.95;;;;;;;;;;5047849;28;20062;-60
2023/07/25 14:15:44;;;;;;;3.67;0.90;;;;;;;;;;5048274;28;20039;-60
2023/07/25 14:18:10;;;;;;;4.57;1.17;;;;;;;;;;5045621;28;20032;-60
2023/07/25 14:20:38;;;;;;;3.42;0.80;;;;;;;;;;5045931;28;20035;-60
2023/07/25 14:23:04;;;;;;;4.75;0.80;;;;;;;;;;5047893;28;20122;-60
2023/07/25 14:25:30;;;;;;;7.07;1.05;;;;;;;;;;5048054;28;20088;-60
2023/07/25 14:27:56;;;;;;;5.18;1.27;;;;;;;;;;5048011;28;20029;-60
2023/07/25 14:30:22;;;;;;;4.63;1.15;;;;;;;;;;5048013;28;20041;-60
2023/07/25 14:32:48;;;;;;;5.82;1.48;;;;;;;;;;5049873;28;20044;-60
2023/07/25 14:35:14;;;;;;;3.38;0.80;;;;;;;;;;5048539;28;20043;-60
2023/07/25 14:37:40;;;;;;;5.45;1.50;;;;;;;;;;5048281;28;20494;-60